Terminal Aerodrome Forecast
Issued by NWS Omaha/Valley, NE

Home | Current Version | Previous Version | Text Only | Print | Product List | Glossary On
Versions: 1 2 3 4 5 6 7 8 9 10 11 12 13 14 15 16 17 18 19 20 21 22 23 24 25 26 27 28 29 30 31 32 33 34 35 36 37 38 39 40 41 42 43 44 45 46 47 48 49 50
000
FTUS43 KOAX 280157 AAA
TAFLNK
TAF AMD
KLNK 280157Z 2802/2824 12004KT P6SM -SHRA OVC040
      TEMPO 2802/2804 VRB15G25KT 1SM TSRA BR BKN025CB
     FM280400 VRB04KT P6SM SCT025 OVC090
      TEMPO 2804/2806 -SHRA BKN025
     FM280600 12004KT P6SM SCT025 BKN060
      TEMPO 2806/2809 -SHRA BKN025=

USA.gov is the U.S. government's official web portal to all federal, state and local government web resources and services.